Time;durP1;ratioP1;P1;durP2;ratioP2;P2;SDS_P1;SDS_P2;PMS_P1;PMS_P2;Temp;Humidity;BMP_temperature;BMP_pressure;BME280_temperature;BME280_humidity;BME280_pressure;Samples;Min_cycle;Max_cycle;Signal;HPM_P1;HPM_P2
2023/09/06 00:01:24;;;;;;;5.50;5.00;;;19.10;61.30;;;;;;5099908;28;20189;-37
2023/09/06 00:03:50;;;;;;;5.90;5.40;;;19.10;70.80;;;;;;5099903;28;20270;-36
2023/09/06 00:06:16;;;;;;;6.30;5.73;;;19.00;59.90;;;;;;5099012;28;20188;-37
2023/09/06 00:08:42;;;;;;;6.50;5.30;;;19.00;73.50;;;;;;5097270;28;20224;-37
2023/09/06 00:11:07;;;;;;;6.37;5.77;;;18.90;87.40;;;;;;5097656;28;20835;-37
2023/09/06 00:13:34;;;;;;;6.40;5.77;;;18.90;99.90;;;;;;5096709;28;20503;-35
2023/09/06 00:21:40;;;;;;;5.90;5.07;;;18.90;99.90;;;;;;5102693;27;21112;-38
2023/09/06 00:24:06;;;;;;;5.53;5.03;;;18.80;99.90;;;;;;5118813;28;20310;-37
2023/09/06 00:26:32;;;;;;;6.23;5.63;;;18.80;99.90;;;;;;5118821;28;20470;-38
2023/09/06 00:28:57;;;;;;;6.10;5.60;;;18.80;99.90;;;;;;5118557;28;20604;-37
2023/09/06 00:31:23;;;;;;;5.43;4.93;;;18.80;99.90;;;;;;5116697;28;20180;-37
2023/09/06 00:33:49;;;;;;;6.90;5.93;;;18.70;99.90;;;;;;5116087;28;20195;-37
2023/09/06 00:36:14;;;;;;;5.17;4.67;;;18.70;99.90;;;;;;5116859;28;20569;-36
2023/09/06 00:38:40;;;;;;;5.70;5.20;;;18.60;99.90;;;;;;5117649;28;20194;-37
2023/09/06 00:41:05;;;;;;;6.70;4.77;;;18.60;99.90;;;;;;5118105;28;20249;-37
2023/09/06 00:43:31;;;;;;;6.27;5.67;;;18.60;99.90;;;;;;5117817;28;22200;-39
2023/09/06 00:45:57;;;;;;;6.47;5.53;;;18.50;99.90;;;;;;5118307;28;20188;-36
2023/09/06 00:48:26;;;;;;;5.77;5.27;;;18.50;99.90;;;;;;5118902;28;20522;-38
2023/09/06 00:50:56;;;;;;;6.17;5.60;;;18.50;99.90;;;;;;5101017;28;20567;-36
2023/09/06 00:59:12;;;;;;;6.73;5.97;;;18.50;99.90;;;;;;5098931;28;20489;-37
2023/09/06 01:01:38;;;;;;;7.00;6.10;;;18.50;99.90;;;;;;5117245;28;20179;-38
2023/09/06 01:04:04;;;;;;;5.60;5.10;;;18.50;99.90;;;;;;5118510;28;20915;-37
2023/09/06 01:06:31;;;;;;;5.50;5.00;;;18.50;99.90;;;;;;5117982;28;20597;-37
2023/09/06 01:08:58;;;;;;;5.80;4.93;;;18.50;99.90;;;;;;5118989;28;20505;-36
2023/09/06 01:11:25;;;;;;;5.63;5.13;;;18.50;99.90;;;;;;5118435;27;20456;-37
2023/09/06 01:13:53;;;;;;;6.07;5.57;;;18.50;99.90;;;;;;5118717;28;20432;-37
2023/09/06 01:16:29;;;;;;;6.33;5.67;;;18.50;99.90;;;;;;5118195;28;20418;-38
2023/09/06 01:18:55;;;;;;;8.10;5.83;;;18.40;99.90;;;;;;5118402;28;20498;-38
2023/09/06 01:21:24;;;;;;;6.90;6.00;;;18.40;99.90;;;;;;5116810;28;20873;-37
2023/09/06 01:23:51;;;;;;;8.00;5.50;;;18.30;99.90;;;;;;5118069;28;20704;-37
2023/09/06 01:26:17;;;;;;;5.20;4.70;;;18.30;99.90;;;;;;5117936;28;20417;-37
2023/09/06 01:28:43;;;;;;;5.83;5.33;;;18.20;99.90;;;;;;5117193;28;20406;-37
2023/09/06 01:31:09;;;;;;;5.63;4.93;;;18.20;99.90;;;;;;5117005;28;20832;-37
2023/09/06 01:33:34;;;;;;;6.00;5.40;;;18.20;99.90;;;;;;5118245;28;20264;-37
2023/09/06 01:36:00;;;;;;;6.27;5.63;;;18.20;99.90;;;;;;5117994;28;20307;-37
2023/09/06 01:38:25;;;;;;;6.67;5.70;;;18.20;99.90;;;;;;5117780;28;20180;-37
2023/09/06 01:40:52;;;;;;;5.87;5.30;;;18.20;99.90;;;;;;5117708;28;20191;-36
2023/09/06 01:43:18;;;;;;;6.77;5.87;;;18.20;99.90;;;;;;5117161;28;20191;-37
2023/09/06 01:45:51;;;;;;;6.13;5.53;;;18.20;99.90;;;;;;5117311;28;20516;-38
2023/09/06 01:48:19;;;;;;;5.60;5.10;;;18.20;99.90;;;;;;5116329;28;20426;-37
2023/09/06 01:50:45;;;;;;;5.53;5.03;;;18.10;99.90;;;;;;5117045;28;20422;-37
2023/09/06 01:53:13;;;;;;;5.80;5.30;;;18.10;99.90;;;;;;5117097;28;20946;-37
2023/09/06 01:55:40;;;;;;;6.27;5.67;;;18.10;99.90;;;;;;5117447;27;20516;-38
2023/09/06 01:58:06;;;;;;;6.20;5.60;;;18.10;99.90;;;;;;5117847;28;20866;-36
2023/09/06 02:00:34;;;;;;;5.60;5.10;;;18.00;99.90;;;;;;5117804;28;20827;-37
2023/09/06 02:03:00;;;;;;;5.70;5.20;;;18.00;99.90;;;;;;5118562;28;20184;-37
2023/09/06 02:05:26;;;;;;;6.43;5.70;;;18.00;99.90;;;;;;5117363;28;20478;-36
2023/09/06 02:07:52;;;;;;;5.57;5.07;;;18.00;99.90;;;;;;5118177;28;20569;-36
2023/09/06 02:10:17;;;;;;;6.17;5.57;;;17.90;99.90;;;;;;5118343;28;20209;-36
2023/09/06 02:12:44;;;;;;;6.23;5.63;;;17.90;99.90;;;;;;5118366;28;20576;-36
2023/09/06 02:15:13;;;;;;;5.63;5.13;;;17.90;99.90;;;;;;5117933;28;20429;-36
2023/09/06 02:17:42;;;;;;;6.30;4.97;;;17.90;99.90;;;;;;5117821;28;20441;-37
2023/09/06 02:20:21;;;;;;;8.97;5.73;;;17.80;99.90;;;;;;5116808;28;20730;-37
2023/09/06 02:22:51;;;;;;;7.20;5.67;;;17.80;99.90;;;;;;5118021;28;20439;-43
2023/09/06 02:25:20;;;;;;;5.77;5.17;;;17.80;99.90;;;;;;5117672;27;20471;-38
2023/09/06 02:27:46;;;;;;;6.37;5.73;;;17.80;99.90;;;;;;5117684;28;20535;-37
2023/09/06 02:30:12;;;;;;;5.70;5.20;;;17.80;99.90;;;;;;5117517;28;20833;-36
2023/09/06 02:32:38;;;;;;;5.83;5.20;;;17.80;99.90;;;;;;5118632;28;20275;-36
2023/09/06 02:35:06;;;;;;;5.60;5.10;;;17.70;99.90;;;;;;5118218;28;20524;-38
2023/09/06 02:37:31;;;;;;;6.50;5.37;;;17.70;99.90;;;;;;5116929;28;20186;-37
2023/09/06 02:39:57;;;;;;;5.87;5.27;;;17.70;99.90;;;;;;5117387;28;20421;-37
2023/09/06 02:42:23;;;;;;;5.70;5.20;;;17.60;99.90;;;;;;5116958;28;20187;-37
2023/09/06 02:44:49;;;;;;;5.80;5.17;;;17.60;99.90;;;;;;5116272;28;20208;-37
2023/09/06 02:47:17;;;;;;;6.27;5.47;;;17.60;99.90;;;;;;5115047;28;20422;-36
2023/09/06 02:49:45;;;;;;;6.20;5.60;;;17.60;99.90;;;;;;5116389;28;20592;-36
2023/09/06 02:52:20;;;;;;;5.63;5.13;;;17.50;99.90;;;;;;5115522;27;20443;-38
2023/09/06 02:54:49;;;;;;;5.80;5.20;;;17.50;99.90;;;;;;5115252;28;20861;-36
2023/09/06 02:57:17;;;;;;;6.20;5.63;;;17.40;99.90;;;;;;5115535;28;20452;-37
2023/09/06 02:59:43;;;;;;;6.50;5.40;;;17.40;99.90;;;;;;5114380;28;20477;-36
2023/09/06 03:02:08;;;;;;;5.40;4.90;;;17.50;99.90;;;;;;5114588;28;20437;-37
2023/09/06 03:04:37;;;;;;;6.00;5.50;;;17.50;99.90;;;;;;5114758;28;20265;-36
2023/09/06 03:07:07;;;;;;;5.90;5.40;;;17.50;99.90;;;;;;5116061;28;20191;-37
2023/09/06 03:09:35;;;;;;;5.70;5.20;;;17.50;99.90;;;;;;5116274;28;20711;-38
2023/09/06 03:12:11;;;;;;;7.20;5.87;;;17.50;99.90;;;;;;5114659;28;20452;-36
2023/09/06 03:14:43;;;;;;;6.43;5.70;;;17.40;99.90;;;;;;5115601;28;21020;-37
2023/09/06 03:17:09;;;;;;;5.80;5.30;;;17.40;99.90;;;;;;5115969;28;20429;-36
2023/09/06 03:19:41;;;;;;;5.50;5.00;;;17.40;99.90;;;;;;5115767;28;20458;-37
2023/09/06 03:22:09;;;;;;;6.47;5.87;;;17.40;99.90;;;;;;5114768;28;20430;-36
2023/09/06 03:24:39;;;;;;;5.77;5.27;;;17.40;99.90;;;;;;5115631;28;20465;-37
2023/09/06 03:27:07;;;;;;;6.50;5.93;;;17.40;99.90;;;;;;5115743;28;20418;-37
2023/09/06 03:29:36;;;;;;;6.97;6.27;;;17.30;99.90;;;;;;5116137;28;20813;-37
2023/09/06 03:32:07;;;;;;;7.43;5.50;;;17.30;99.90;;;;;;5120352;28;20452;-37
2023/09/06 03:34:36;;;;;;;8.10;5.10;;;17.30;99.90;;;;;;5119492;28;20461;-37
2023/09/06 03:37:05;;;;;;;5.40;4.90;;;17.30;99.90;;;;;;5120739;28;20436;-36
2023/09/06 03:39:37;;;;;;;6.50;5.90;;;17.30;99.90;;;;;;5119974;28;20449;-49
2023/09/06 03:42:08;;;;;;;6.20;5.37;;;17.30;99.90;;;;;;5118951;28;20418;-36
2023/09/06 03:44:37;;;;;;;6.83;5.70;;;17.30;99.90;;;;;;5120504;28;21069;-37
2023/09/06 03:47:05;;;;;;;5.80;5.30;;;17.20;99.90;;;;;;5120068;28;20424;-48
2023/09/06 03:49:35;;;;;;;5.57;5.07;;;17.20;99.90;;;;;;5119860;28;20500;-37
2023/09/06 03:52:04;;;;;;;6.23;5.73;;;17.20;99.90;;;;;;5119922;28;20432;-36
2023/09/06 03:54:29;;;;;;;6.67;5.97;;;17.20;99.90;;;;;;5118833;28;20465;-36
2023/09/06 03:56:55;;;;;;;6.43;5.83;;;17.10;99.90;;;;;;5120355;28;20509;-37
2023/09/06 03:59:21;;;;;;;6.33;5.33;;;17.10;99.90;;;;;;5119909;28;20223;-36
2023/09/06 04:31:07;;;;;;;6.40;5.77;;;16.90;1.00;;;;;;5133569;27;20234;-36
2023/09/06 04:33:33;;;;;;;6.00;5.40;;;16.90;1.00;;;;;;5139001;27;20217;-38
2023/09/06 04:35:59;;;;;;;6.53;5.93;;;16.90;1.00;;;;;;5138872;27;20408;-37
2023/09/06 04:38:24;;;;;;;6.40;5.80;;;16.80;1.00;;;;;;5138797;27;20258;-37
2023/09/06 04:40:51;;;;;;;7.70;6.57;;;16.90;1.00;;;;;;5138730;27;20186;-36
2023/09/06 04:43:18;;;;;;;6.50;5.90;;;16.80;99.90;;;;;;5139006;27;20186;-36
2023/09/06 04:45:44;;;;;;;6.70;6.10;;;16.80;1.00;;;;;;5138815;27;20431;-36
2023/09/06 04:48:11;;;;;;;7.07;6.37;;;16.70;1.00;;;;;;5138709;27;20818;-38
2023/09/06 04:50:38;;;;;;;9.50;6.40;;;16.70;1.00;;;;;;5139011;27;20515;-37
2023/09/06 04:53:04;;;;;;;6.93;6.23;;;16.70;1.00;;;;;;5120227;27;20444;-37
2023/09/06 04:55:35;;;;;;;6.40;5.80;;;16.60;1.00;;;;;;5137928;27;20492;-37
2023/09/06 04:58:04;;;;;;;7.00;6.37;;;16.60;1.00;;;;;;5137562;27;20417;-36
2023/09/06 05:00:36;;;;;;;6.57;5.97;;;16.60;1.00;;;;;;5136032;27;20499;-37
2023/09/06 05:09:19;;;;;;;6.70;6.00;;;16.70;1.00;;;;;;5134465;27;20563;-38
2023/09/06 05:17:34;;;;;;;6.63;5.97;;;16.90;1.00;;;;;;5134233;27;20555;-35
2023/09/06 05:20:35;;;;;;;6.23;5.23;;;16.90;1.00;;;;;;5135607;27;20190;-37
2023/09/06 05:23:11;;;;;;;7.00;6.30;;;16.90;1.00;;;;;;5134599;27;20400;-37
2023/09/06 05:25:37;;;;;;;7.40;6.70;;;16.90;1.00;;;;;;5134150;27;20491;-36
2023/09/06 05:33:53;;;;;;;7.50;5.73;;;16.40;1.00;;;;;;5135636;27;20460;-44
2023/09/06 05:36:19;;;;;;;8.87;6.57;;;16.20;1.00;;;;;;5135296;27;20187;-44
2023/09/06 05:38:45;;;;;;;7.10;6.40;;;16.00;1.00;;;;;;5135510;27;20685;-44
2023/09/06 05:41:10;;;;;;;8.73;7.83;;;15.70;65.00;;;;;;5134371;27;20183;-44
2023/09/06 05:43:36;;;;;;;7.50;6.80;;;15.50;99.90;;;;;;5135949;27;20613;-44
2023/09/06 05:51:49;;;;;;;8.00;7.27;;;14.90;1.00;;;;;;5132192;27;20488;-45
2023/09/06 05:54:14;;;;;;;8.77;7.90;;;14.90;99.90;;;;;;5135560;27;20219;-45
2023/09/06 05:56:40;;;;;;;8.23;7.40;;;15.00;1.00;;;;;;5136273;27;20203;-44
2023/09/06 05:59:05;;;;;;;7.10;6.50;;;15.10;99.90;;;;;;5135874;27;20183;-44
2023/09/06 06:01:31;;;;;;;12.33;8.17;;;15.30;99.90;;;;;;5134528;27;20270;-44
2023/09/06 06:03:56;;;;;;;9.53;7.33;;;15.40;99.90;;;;;;5135060;27;20198;-44
2023/09/06 06:06:22;;;;;;;7.43;6.70;;;15.60;99.90;;;;;;5135083;27;20187;-44
2023/09/06 06:08:48;;;;;;;11.07;6.97;;;15.80;99.90;;;;;;5134013;27;20271;-45
2023/09/06 06:11:13;;;;;;;7.47;6.83;;;16.00;1.00;;;;;;5114602;27;20481;-45
2023/09/06 06:13:39;;;;;;;7.70;7.00;;;16.20;99.90;;;;;;5132448;27;20179;-45
2023/09/06 06:16:06;;;;;;;8.23;7.43;;;16.40;14.00;;;;;;5135338;27;20195;-44
2023/09/06 06:18:32;;;;;;;7.93;7.33;;;16.60;1.00;;;;;;5133090;27;20467;-44
2023/09/06 06:20:58;;;;;;;8.60;7.67;;;16.80;99.90;;;;;;5132647;27;20853;-43
2023/09/06 06:23:24;;;;;;;11.17;7.60;;;17.00;99.90;;;;;;5133420;27;20475;-43
2023/09/06 06:25:50;;;;;;;7.77;7.07;;;17.20;1.00;;;;;;5133246;27;20432;-42
2023/09/06 06:28:15;;;;;;;6.40;5.80;;;17.40;1.00;;;;;;5130373;27;20449;-43
2023/09/06 06:30:42;;;;;;;8.00;6.73;;;17.60;99.90;;;;;;5131743;27;20216;-43
2023/09/06 06:33:08;;;;;;;7.20;6.50;;;17.80;99.90;;;;;;5132801;27;20184;-43
2023/09/06 06:35:33;;;;;;;7.70;7.00;;;18.00;35.00;;;;;;5133242;27;20807;-43
2023/09/06 06:37:59;;;;;;;7.50;6.80;;;18.10;1.00;;;;;;5133181;27;20436;-43
2023/09/06 06:40:26;;;;;;;7.20;6.60;;;18.20;1.00;;;;;;5130833;27;20335;-43
2023/09/06 06:42:51;;;;;;;6.90;6.30;;;18.40;1.00;;;;;;5129855;27;20342;-43
2023/09/06 06:45:17;;;;;;;7.60;6.30;;;18.50;1.00;;;;;;5129643;27;20523;-43
2023/09/06 06:47:42;;;;;;;7.77;6.43;;;18.60;1.00;;;;;;5132410;27;20209;-43
2023/09/06 06:50:09;;;;;;;6.73;6.03;;;18.80;1.00;;;;;;5132928;27;20239;-43
2023/09/06 06:52:36;;;;;;;7.30;6.60;;;18.90;1.00;;;;;;5131150;27;20179;-44
2023/09/06 06:55:03;;;;;;;7.57;6.93;;;19.00;1.00;;;;;;5130092;27;20797;-43
2023/09/06 06:57:30;;;;;;;6.70;6.10;;;19.20;99.90;;;;;;5129366;27;20416;-43
2023/09/06 06:59:55;;;;;;;6.37;5.80;;;19.40;99.90;;;;;;5130595;28;20516;-42
2023/09/06 07:02:21;;;;;;;6.93;6.27;;;19.50;99.90;;;;;;5133023;28;20520;-43
2023/09/06 07:04:47;;;;;;;7.20;6.60;;;19.70;99.90;;;;;;5132532;27;20190;-44
2023/09/06 07:07:13;;;;;;;7.53;6.67;;;19.80;99.90;;;;;;5137284;27;20179;-44
2023/09/06 07:09:38;;;;;;;7.70;6.20;;;19.90;99.90;;;;;;5139187;27;20432;-44
2023/09/06 07:12:04;;;;;;;6.87;6.17;;;19.90;99.90;;;;;;5138097;27;20604;-43
2023/09/06 07:14:30;;;;;;;7.77;7.00;;;20.00;99.90;;;;;;5134810;27;20254;-43
2023/09/06 07:16:56;;;;;;;8.53;5.90;;;20.20;99.90;;;;;;5132424;27;20509;-43
2023/09/06 07:19:21;;;;;;;7.73;6.97;;;20.40;99.90;;;;;;5138425;27;20620;-43
2023/09/06 07:21:47;;;;;;;7.00;6.30;;;20.60;99.90;;;;;;5136025;27;20461;-43
2023/09/06 07:36:05;;;;;;;8.73;6.33;;;21.30;49.50;;;;;;5132917;27;20624;-42
2023/09/06 07:38:31;;;;;;;7.03;6.33;;;21.70;17.00;;;;;;5135541;27;20436;-42
2023/09/06 07:40:57;;;;;;;8.90;7.57;;;21.80;13.20;;;;;;5136587;27;20430;-42
2023/09/06 07:43:25;;;;;;;8.13;7.03;;;22.10;4.00;;;;;;5137964;27;20436;-42
2023/09/06 07:45:51;;;;;;;8.40;6.50;;;22.20;1.00;;;;;;5139704;27;20539;-42
2023/09/06 07:48:17;;;;;;;6.80;6.20;;;22.40;1.00;;;;;;5136842;27;20572;-42
2023/09/06 07:50:42;;;;;;;5.97;5.37;;;22.60;1.00;;;;;;5134180;27;20527;-42
2023/09/06 07:53:08;;;;;;;17.00;7.93;;;22.80;1.00;;;;;;5134832;27;20180;-42
2023/09/06 07:55:34;;;;;;;12.63;6.97;;;23.00;1.00;;;;;;5137507;27;20217;-42
2023/09/06 07:58:01;;;;;;;8.17;6.13;;;23.30;1.00;;;;;;5137441;27;20413;-42
2023/09/06 08:00:30;;;;;;;6.83;6.10;;;23.40;1.00;;;;;;5137274;27;20179;-44
2023/09/06 08:02:56;;;;;;;12.43;7.10;;;23.50;1.00;;;;;;5119195;27;20469;-45
2023/09/06 08:05:26;;;;;;;14.00;7.20;;;23.50;1.00;;;;;;5117361;27;20436;-41
2023/09/06 08:07:51;;;;;;;8.97;6.40;;;23.50;1.00;;;;;;5138315;27;20195;-45
2023/09/06 08:10:18;;;;;;;6.30;5.80;;;23.70;1.00;;;;;;5137003;27;20513;-44
2023/09/06 08:12:43;;;;;;;10.97;7.70;;;23.90;1.00;;;;;;5136231;27;20198;-44
2023/09/06 08:15:09;;;;;;;7.40;6.33;;;23.90;1.00;;;;;;5136139;27;20780;-42
2023/09/06 08:17:35;;;;;;;8.27;6.40;;;23.80;1.00;;;;;;5135642;27;20183;-45
2023/09/06 08:20:00;;;;;;;18.47;6.70;;;23.90;1.00;;;;;;5134448;27;20276;-43
2023/09/06 08:22:26;;;;;;;7.47;6.77;;;24.00;1.00;;;;;;5134289;27;20183;-43
2023/09/06 08:24:54;;;;;;;6.30;5.80;;;24.10;1.00;;;;;;5134744;27;20187;-44
2023/09/06 08:27:19;;;;;;;7.03;6.43;;;24.00;1.00;;;;;;5134896;27;20364;-44
2023/09/06 08:29:45;;;;;;;8.77;7.13;;;24.20;1.00;;;;;;5134179;27;20527;-44
2023/09/06 08:32:11;;;;;;;7.60;6.97;;;24.40;1.00;;;;;;5114137;27;20299;-44
2023/09/06 08:34:36;;;;;;;8.47;6.03;;;24.50;1.00;;;;;;5134439;27;20619;-44
2023/09/06 08:37:02;;;;;;;6.87;6.20;;;24.70;1.00;;;;;;5134194;27;20221;-44
2023/09/06 08:39:28;;;;;;;6.87;6.27;;;24.90;1.00;;;;;;5115569;27;20183;-44
2023/09/06 08:41:55;;;;;;;7.00;6.30;;;24.70;1.00;;;;;;5135232;27;20217;-44
2023/09/06 08:44:24;;;;;;;6.73;5.57;;;24.90;1.00;;;;;;5134837;27;20187;-45
2023/09/06 08:46:52;;;;;;;6.20;5.70;;;24.90;1.00;;;;;;5133232;27;20429;-44
2023/09/06 08:49:19;;;;;;;6.07;5.47;;;25.00;1.00;;;;;;5134300;27;20472;-44
2023/09/06 08:51:46;;;;;;;6.77;6.10;;;25.10;1.00;;;;;;5133378;27;20461;-44
2023/09/06 08:54:13;;;;;;;6.50;5.80;;;25.30;1.00;;;;;;5134889;27;20456;-44
2023/09/06 08:56:39;;;;;;;5.83;5.23;;;25.40;1.00;;;;;;5135569;27;20444;-44
2023/09/06 08:59:05;;;;;;;6.40;5.80;;;25.50;1.00;;;;;;5135468;27;20497;-44
2023/09/06 09:01:31;;;;;;;6.10;5.53;;;25.80;1.00;;;;;;5135166;27;20286;-44
2023/09/06 09:03:57;;;;;;;6.47;5.87;;;26.30;1.00;;;;;;5116075;27;20515;-45
2023/09/06 09:06:22;;;;;;;6.80;6.17;;;26.60;1.00;;;;;;5134668;27;20417;-44
2023/09/06 09:08:48;;;;;;;7.03;6.40;;;26.80;1.00;;;;;;5134340;27;20318;-44
2023/09/06 09:11:18;;;;;;;7.43;6.77;;;27.00;1.00;;;;;;5134821;27;20187;-44
2023/09/06 09:13:45;;;;;;;7.90;7.10;;;27.30;1.00;;;;;;5131904;27;20290;-44
2023/09/06 09:16:12;;;;;;;6.70;6.13;;;27.20;1.00;;;;;;5114160;27;20439;-45
2023/09/06 09:18:40;;;;;;;7.43;5.90;;;26.80;1.00;;;;;;5135681;27;20404;-46
2023/09/06 09:21:11;;;;;;;6.90;6.30;;;27.00;1.00;;;;;;5135393;27;20455;-45
2023/09/06 09:23:52;;;;;;;7.00;6.40;;;27.20;1.00;;;;;;5135294;27;20425;-46
2023/09/06 09:26:21;;;;;;;9.30;6.77;;;27.50;1.00;;;;;;5116492;27;20505;-45
2023/09/06 09:28:48;;;;;;;6.60;6.00;;;28.00;1.00;;;;;;5134679;27;20511;-45
2023/09/06 09:37:22;;;;;;;6.23;5.67;;;28.20;1.00;;;;;;5118975;27;20758;-43
2023/09/06 09:39:48;;;;;;;6.77;6.07;;;28.50;1.00;;;;;;5112650;28;20833;-43
2023/09/06 09:42:14;;;;;;;6.23;5.73;;;28.50;1.00;;;;;;5113500;28;20448;-43
2023/09/06 09:44:40;;;;;;;7.00;6.23;;;28.40;1.00;;;;;;5113715;28;20207;-43
2023/09/06 09:47:14;;;;;;;6.50;6.00;;;28.30;1.00;;;;;;5112559;28;20429;-43
2023/09/06 09:49:41;;;;;;;6.40;5.90;;;28.40;1.00;;;;;;5094407;28;20425;-43
2023/09/06 09:52:12;;;;;;;6.17;5.57;;;29.00;1.00;;;;;;5111086;28;20392;-43
2023/09/06 09:54:45;;;;;;;6.80;6.00;;;29.70;1.00;;;;;;5111736;28;20457;-43
2023/09/06 09:57:11;;;;;;;6.10;5.60;;;30.50;1.00;;;;;;5111827;28;20422;-43
2023/09/06 09:59:38;;;;;;;6.53;5.93;;;30.90;1.00;;;;;;5112404;28;20394;-43
2023/09/06 10:02:05;;;;;;;6.37;5.87;;;30.90;1.00;;;;;;5111645;28;20683;-43
2023/09/06 10:09:34;;;;;;;6.77;6.27;;;30.60;1.00;;;;;;5111829;28;20485;-45
2023/09/06 10:12:00;;;;;;;6.43;5.93;;;30.40;1.00;;;;;;5094839;28;20198;-44
2023/09/06 10:14:26;;;;;;;6.73;6.23;;;30.40;1.00;;;;;;5111907;28;20937;-45
2023/09/06 10:16:53;;;;;;;6.57;6.07;;;30.30;1.00;;;;;;5113817;28;20510;-45
2023/09/06 10:19:20;;;;;;;8.33;6.50;;;30.20;1.00;;;;;;5113901;28;20417;-44
2023/09/06 10:21:46;;;;;;;6.53;6.03;;;30.20;1.00;;;;;;5093438;28;20184;-45
2023/09/06 10:24:17;;;;;;;9.97;6.63;;;30.50;1.00;;;;;;5094189;28;20543;-45
2023/09/06 10:26:43;;;;;;;6.60;6.10;;;30.60;1.00;;;;;;5113643;28;20699;-45
2023/09/06 10:29:11;;;;;;;7.23;6.63;;;30.30;1.00;;;;;;5113405;28;20512;-45
2023/09/06 10:31:50;;;;;;;9.70;7.23;;;30.10;1.00;;;;;;5111495;28;20406;-45
2023/09/06 10:34:16;;;;;;;6.53;6.03;;;30.20;1.00;;;;;;5110887;28;20461;-45
2023/09/06 10:36:56;;;;;;;6.67;6.00;;;30.80;1.00;;;;;;5112193;28;20417;-45
2023/09/06 10:39:25;;;;;;;8.53;6.50;;;31.70;1.00;;;;;;5113297;28;20428;-46
2023/09/06 10:42:13;;;;;;;7.10;6.27;;;32.10;1.00;;;;;;5111351;28;20705;-44
2023/09/06 10:44:53;;;;;;;5.67;5.20;;;32.40;1.00;;;;;;5114096;28;20857;-45
2023/09/06 10:47:30;;;;;;;6.70;6.10;;;33.20;1.00;;;;;;5113440;28;20400;-45
2023/09/06 10:50:16;;;;;;;6.20;5.70;;;33.90;1.00;;;;;;5094311;28;20395;-45
2023/09/06 10:52:43;;;;;;;6.77;6.27;;;34.40;1.00;;;;;;5111232;28;20380;-45
2023/09/06 10:55:15;;;;;;;7.10;6.10;;;34.90;1.00;;;;;;5110198;28;20462;-45
2023/09/06 10:58:06;;;;;;;6.53;5.93;;;35.50;1.00;;;;;;5111997;28;20491;-44
2023/09/06 11:00:32;;;;;;;7.50;6.90;;;35.60;1.00;;;;;;5113896;28;20494;-45
2023/09/06 11:03:19;;;;;;;6.83;6.33;;;35.10;1.00;;;;;;5113793;28;20804;-45
2023/09/06 11:05:52;;;;;;;7.57;6.70;;;35.10;1.00;;;;;;5112209;28;20664;-45
2023/09/06 11:08:25;;;;;;;7.27;6.60;;;35.10;1.00;;;;;;5110889;28;20508;-45
2023/09/06 11:10:53;;;;;;;8.00;6.67;;;34.40;1.00;;;;;;5108907;28;20432;-45
2023/09/06 11:13:19;;;;;;;9.27;7.10;;;34.10;1.00;;;;;;5107232;28;20466;-45
2023/09/06 11:15:48;;;;;;;6.90;6.20;;;34.30;1.00;;;;;;5106897;28;20440;-45
2023/09/06 11:18:14;;;;;;;7.13;6.53;;;34.20;1.00;;;;;;5107483;28;20503;-45
2023/09/06 11:20:47;;;;;;;8.30;6.10;;;33.90;1.00;;;;;;5108503;28;20422;-45
2023/09/06 11:23:12;;;;;;;7.20;6.50;;;34.30;1.00;;;;;;5092219;28;20948;-45
2023/09/06 11:25:38;;;;;;;6.67;6.17;;;34.90;1.00;;;;;;5111976;28;20417;-45
2023/09/06 11:28:15;;;;;;;6.93;6.43;;;35.50;1.00;;;;;;5111410;28;20266;-45
2023/09/06 11:30:43;;;;;;;7.40;6.70;;;35.90;1.00;;;;;;5111209;28;20464;-45
2023/09/06 11:33:11;;;;;;;6.30;5.80;;;35.30;1.00;;;;;;5092546;28;20429;-45
2023/09/06 11:35:45;;;;;;;6.80;6.20;;;35.20;1.00;;;;;;5111544;28;20458;-45
2023/09/06 11:38:12;;;;;;;7.00;6.40;;;35.80;1.00;;;;;;5110978;28;20820;-46
2023/09/06 11:40:39;;;;;;;7.67;7.07;;;35.60;1.00;;;;;;5113509;28;20392;-45
2023/09/06 11:43:07;;;;;;;7.63;7.03;;;34.90;1.00;;;;;;5094776;28;20445;-45
2023/09/06 11:45:35;;;;;;;8.03;7.33;;;34.30;1.00;;;;;;5112461;28;20429;-45
2023/09/06 11:48:09;;;;;;;7.00;6.47;;;33.70;1.00;;;;;;5112997;28;20440;-45
2023/09/06 11:50:36;;;;;;;7.33;6.73;;;33.50;1.00;;;;;;5096784;28;20814;-43
2023/09/06 11:53:04;;;;;;;7.00;6.40;;;33.70;1.00;;;;;;5114582;28;20940;-45
2023/09/06 11:55:33;;;;;;;8.23;7.33;;;34.40;1.00;;;;;;5096816;28;20457;-45
2023/09/06 11:57:59;;;;;;;6.80;6.20;;;34.50;1.00;;;;;;5096651;28;20524;-44
2023/09/06 12:00:38;;;;;;;7.60;7.00;;;34.30;1.00;;;;;;5114529;28;20753;-45
2023/09/06 12:03:08;;;;;;;6.90;6.40;;;33.80;1.00;;;;;;5114918;28;20414;-45
2023/09/06 12:05:38;;;;;;;7.13;6.57;;;33.30;1.00;;;;;;5113820;28;20426;-45
2023/09/06 12:08:05;;;;;;;7.43;6.83;;;32.80;1.00;;;;;;5115346;28;20406;-45
2023/09/06 12:10:34;;;;;;;8.00;7.23;;;32.40;1.00;;;;;;5116229;28;20408;-45
2023/09/06 12:13:00;;;;;;;7.40;6.90;;;32.40;1.00;;;;;;5115158;28;20446;-45
2023/09/06 12:15:25;;;;;;;6.50;6.00;;;32.00;1.00;;;;;;5097886;28;20627;-44
2023/09/06 12:17:51;;;;;;;7.73;7.13;;;32.00;1.00;;;;;;5113334;28;20271;-45
2023/09/06 12:20:25;;;;;;;6.70;6.20;;;32.60;1.00;;;;;;5113126;28;20203;-43
2023/09/06 12:22:52;;;;;;;7.47;6.97;;;33.30;1.00;;;;;;5093772;28;20445;-45
2023/09/06 12:25:18;;;;;;;7.20;6.60;;;33.70;1.00;;;;;;5115227;28;20829;-45
2023/09/06 12:27:45;;;;;;;6.60;6.10;;;34.20;1.00;;;;;;5114431;28;20417;-45
2023/09/06 12:30:11;;;;;;;6.77;5.77;;;34.50;1.00;;;;;;5096095;28;20839;-45
2023/09/06 12:32:40;;;;;;;6.93;6.23;;;35.10;1.00;;;;;;5115156;28;20788;-45
2023/09/06 12:35:10;;;;;;;7.23;6.53;;;35.50;1.00;;;;;;5112448;28;20490;-45
2023/09/06 12:37:36;;;;;;;8.13;6.17;;;35.70;1.00;;;;;;5112543;28;20519;-45
2023/09/06 12:40:16;;;;;;;6.67;6.07;;;36.20;1.00;;;;;;5110574;28;20534;-44
2023/09/06 12:42:46;;;;;;;6.87;6.37;;;36.80;1.00;;;;;;5114222;28;20421;-44
2023/09/06 12:45:28;;;;;;;6.70;6.20;;;37.40;1.00;;;;;;5115609;28;20867;-45
2023/09/06 12:48:00;;;;;;;5.93;5.40;;;37.70;1.00;;;;;;5114604;28;20525;-45
2023/09/06 12:50:26;;;;;;;6.90;6.30;;;38.20;1.00;;;;;;5114456;28;20436;-45
2023/09/06 12:52:53;;;;;;;7.20;6.60;;;37.40;1.00;;;;;;5114511;28;20711;-45
2023/09/06 12:55:19;;;;;;;7.13;6.53;;;37.10;1.00;;;;;;5114248;28;20440;-45
2023/09/06 12:57:46;;;;;;;7.17;6.57;;;36.60;1.00;;;;;;5114315;28;20491;-45
2023/09/06 13:00:12;;;;;;;6.10;5.60;;;36.50;1.00;;;;;;5114655;28;20437;-44
2023/09/06 13:02:40;;;;;;;6.20;5.70;;;36.80;1.00;;;;;;5113003;28;20460;-45
2023/09/06 13:05:05;;;;;;;7.43;6.80;;;37.20;1.00;;;;;;5114666;28;20408;-43
2023/09/06 13:07:32;;;;;;;6.70;6.20;;;37.40;1.00;;;;;;5114849;28;20433;-44
2023/09/06 13:09:57;;;;;;;7.33;6.67;;;38.10;1.00;;;;;;5134288;27;20325;-44
2023/09/06 13:12:23;;;;;;;7.23;6.73;;;38.60;1.00;;;;;;5135829;27;20555;-44
2023/09/06 13:14:49;;;;;;;6.97;6.43;;;38.40;1.00;;;;;;5115231;27;20556;-43
2023/09/06 13:17:15;;;;;;;6.30;5.90;;;38.70;1.00;;;;;;5134695;27;20541;-44
2023/09/06 13:19:44;;;;;;;6.80;6.30;;;39.10;1.00;;;;;;5134802;27;20428;-44
2023/09/06 13:22:09;;;;;;;7.90;5.53;;;39.60;1.00;;;;;;5114530;27;20391;-44
2023/09/06 13:24:35;;;;;;;7.40;6.50;;;39.70;1.00;;;;;;5133651;27;20551;-45
2023/09/06 13:27:03;;;;;;;9.77;6.60;;;39.50;1.00;;;;;;5134385;27;20191;-44
2023/09/06 13:29:29;;;;;;;7.13;6.53;;;39.70;1.00;;;;;;5135407;27;20187;-45
2023/09/06 13:31:54;;;;;;;8.97;6.20;;;39.50;1.00;;;;;;5134503;27;20705;-45
2023/09/06 13:34:20;;;;;;;6.37;5.97;;;39.20;1.00;;;;;;5133957;27;20519;-46
2023/09/06 13:36:46;;;;;;;6.70;6.10;;;38.20;1.00;;;;;;5115285;27;20494;-46
2023/09/06 13:39:13;;;;;;;7.13;6.00;;;38.00;1.00;;;;;;5134566;27;20186;-46
2023/09/06 13:41:40;;;;;;;6.13;5.63;;;38.10;1.00;;;;;;5130824;27;20576;-43
2023/09/06 13:44:06;;;;;;;9.43;6.90;;;38.40;1.00;;;;;;5130698;27;20693;-44
2023/09/06 13:46:32;;;;;;;6.80;5.83;;;38.70;1.00;;;;;;5131422;27;20406;-45
2023/09/06 13:49:00;;;;;;;6.17;5.57;;;38.70;1.00;;;;;;5132545;27;20195;-47
2023/09/06 13:51:29;;;;;;;6.00;5.40;;;38.30;1.00;;;;;;5117807;27;20441;-46
2023/09/06 13:53:55;;;;;;;5.47;5.07;;;38.20;1.00;;;;;;5113594;28;20878;-45
2023/09/06 13:56:21;;;;;;;6.03;5.53;;;37.90;1.00;;;;;;5114015;28;20429;-46
2023/09/06 13:58:47;;;;;;;11.30;5.67;;;37.40;1.00;;;;;;5114628;28;20422;-45
2023/09/06 14:01:15;;;;;;;5.77;5.27;;;37.50;1.00;;;;;;5115155;28;20599;-45
2023/09/06 14:03:41;;;;;;;6.30;5.43;;;37.80;1.00;;;;;;5114009;28;20502;-46
2023/09/06 14:06:07;;;;;;;9.77;5.53;;;37.80;1.00;;;;;;5114422;28;20511;-45
2023/09/06 14:08:32;;;;;;;9.30;5.57;;;37.20;1.00;;;;;;5098052;28;20456;-45
2023/09/06 14:10:58;;;;;;;8.00;5.57;;;36.90;1.00;;;;;;5113058;28;20184;-46
2023/09/06 14:13:25;;;;;;;6.10;5.50;;;36.70;1.00;;;;;;5114234;28;20195;-46
2023/09/06 14:15:52;;;;;;;8.43;5.50;;;36.80;1.00;;;;;;5096847;28;20251;-45
2023/09/06 14:18:18;;;;;;;8.70;5.37;;;36.90;1.00;;;;;;5111953;28;20441;-45
2023/09/06 14:20:44;;;;;;;6.67;5.60;;;36.90;1.00;;;;;;5111279;28;20449;-45
2023/09/06 14:23:11;;;;;;;7.73;5.83;;;37.20;1.00;;;;;;5110251;28;20244;-46